createdAt,value
2019-05-03T00:01:58.684Z,60.60
2019-05-03T00:04:04.025Z,60.60
2019-05-03T00:06:09.251Z,60.50
2019-05-03T00:08:14.777Z,60.60
2019-05-03T00:10:22.246Z,60.10
2019-05-03T00:12:28.180Z,59.80
2019-05-03T00:14:34.235Z,60.10
2019-05-03T00:16:41.649Z,60.20
2019-05-03T00:18:47.188Z,60.40
2019-05-03T00:20:52.791Z,60.50
2019-05-03T00:22:57.894Z,60.50
2019-05-03T00:25:08.126Z,60.20
2019-05-03T00:27:12.324Z,60.10
2019-05-03T00:29:17.493Z,60.30
2019-05-03T00:31:23.010Z,60.40
2019-05-03T00:33:28.483Z,60.50
2019-05-03T00:35:52.007Z,60.20
2019-05-03T00:37:58.829Z,60.10
2019-05-03T00:40:05.400Z,60.10
2019-05-03T00:42:11.922Z,60.00
2019-05-03T00:44:17.075Z,60.20
2019-05-03T00:46:22.254Z,60.40
2019-05-03T00:48:27.684Z,60.40
2019-05-03T00:50:32.771Z,59.90
2019-05-03T00:52:37.898Z,60.20
2019-05-03T00:54:43.390Z,60.30
2019-05-03T00:56:48.895Z,60.40
2019-05-03T00:58:57.665Z,60.10
2019-05-03T01:01:05.231Z,59.90
2019-05-03T01:03:12.537Z,59.90
2019-05-03T01:05:19.214Z,59.70
2019-05-03T01:07:25.084Z,59.80
2019-05-03T01:09:31.803Z,59.90
2019-05-03T01:11:37.129Z,60.00
2019-05-03T01:13:42.504Z,60.10
2019-05-03T01:15:57.838Z,60.20
2019-05-03T01:18:04.892Z,60.20
2019-05-03T01:20:11.849Z,60.20
2019-05-03T01:22:17.453Z,60.30
2019-05-03T01:24:23.119Z,60.30
2019-05-03T01:26:28.149Z,60.40
2019-05-03T01:28:33.341Z,60.40
2019-05-03T01:30:38.507Z,60.40
2019-05-03T01:32:44.257Z,60.40
2019-05-03T01:34:49.440Z,60.40
2019-05-03T01:36:54.480Z,60.60
2019-05-03T01:39:01.998Z,60.50
2019-05-03T01:41:07.221Z,60.50
2019-05-03T01:43:12.985Z,60.40
2019-05-03T01:45:18.318Z,60.40
2019-05-03T01:47:32.584Z,60.40
2019-05-03T01:49:45.223Z,60.40
2019-05-03T01:52:13.355Z,60.60
2019-05-03T01:54:18.860Z,60.60
2019-05-03T01:56:23.966Z,60.60
2019-05-03T01:58:29.477Z,60.50
2019-05-03T02:00:37.174Z,60.60
2019-05-03T02:02:52.492Z,60.80
2019-05-03T02:05:15.192Z,60.80
2019-05-03T02:07:22.343Z,61.00
2019-05-03T02:09:27.911Z,61.10
2019-05-03T02:11:33.025Z,61.10
2019-05-03T02:13:38.144Z,60.60
2019-05-03T02:15:43.666Z,60.50
2019-05-03T02:17:48.859Z,60.60
2019-05-03T02:19:54.679Z,60.60
2019-05-03T02:21:59.797Z,60.50
2019-05-03T02:24:05.211Z,60.90
2019-05-03T02:26:11.768Z,61.10
2019-05-03T02:28:16.955Z,61.60
2019-05-03T02:30:25.008Z,61.00
2019-05-03T02:32:29.368Z,61.10
2019-05-03T02:34:34.569Z,61.00
2019-05-03T02:36:42.846Z,60.90
2019-05-03T02:38:47.709Z,61.00
2019-05-03T02:40:53.385Z,60.90
2019-05-03T02:43:08.765Z,60.90
2019-05-03T02:45:20.687Z,60.90
2019-05-03T02:47:43.832Z,60.90
2019-05-03T02:49:55.992Z,60.90
2019-05-03T02:52:00.619Z,60.90
2019-05-03T02:54:05.811Z,60.90
2019-05-03T02:56:18.229Z,60.90
2019-05-03T02:58:17.792Z,60.90
2019-05-03T03:00:49.457Z,61.20
2019-05-03T03:02:55.730Z,62.10
2019-05-03T03:05:01.315Z,61.20
2019-05-03T03:07:07.876Z,60.90
2019-05-03T03:09:16.256Z,60.90
2019-05-03T03:11:22.688Z,60.90
2019-05-03T03:13:30.523Z,60.90
2019-05-03T03:15:39.137Z,60.90
2019-05-03T03:17:47.444Z,61.10
2019-05-03T03:19:55.774Z,60.80
2019-05-03T03:22:06.220Z,60.40
2019-05-03T03:24:17.164Z,60.50
2019-05-03T03:26:37.330Z,60.20
2019-05-03T03:28:37.992Z,59.90
2019-05-03T03:31:28.150Z,60.00
2019-05-03T03:33:32.725Z,59.90
2019-05-03T03:36:01.327Z,60.10
2019-05-03T03:38:05.714Z,60.30
2019-05-03T03:40:11.158Z,60.60
2019-05-03T03:42:18.044Z,60.50
2019-05-03T03:44:25.606Z,60.60
2019-05-03T03:46:32.405Z,60.50
2019-05-03T03:48:40.818Z,60.50
2019-05-03T03:50:47.878Z,60.60
2019-05-03T03:52:57.004Z,60.60
2019-05-03T03:55:06.393Z,60.60
2019-05-03T03:57:15.939Z,60.70
2019-05-03T03:59:22.034Z,61.00
2019-05-03T04:01:27.449Z,61.00
2019-05-03T04:03:32.634Z,61.00
2019-05-03T04:05:37.900Z,60.70
2019-05-03T04:07:43.166Z,61.70
2019-05-03T04:09:48.767Z,60.60
2019-05-03T04:11:56.414Z,60.50
2019-05-03T04:14:01.589Z,60.50
2019-05-03T04:16:25.859Z,60.40
2019-05-03T04:18:38.719Z,60.30
2019-05-03T04:20:45.839Z,60.30
2019-05-03T04:22:51.164Z,60.40
2019-05-03T04:24:57.648Z,60.20
2019-05-03T04:27:15.667Z,60.40
2019-05-03T04:29:16.190Z,60.70
2019-05-03T04:31:21.057Z,60.70
2019-05-03T04:33:27.050Z,60.60
2019-05-03T04:35:36.045Z,60.80
2019-05-03T04:37:40.051Z,60.80
2019-05-03T04:39:46.063Z,60.90
2019-05-03T04:41:51.284Z,61.00
2019-05-03T04:43:56.728Z,60.90
2019-05-03T04:46:08.566Z,60.70
2019-05-03T04:48:16.046Z,60.50
2019-05-03T04:50:21.005Z,60.50
2019-05-03T04:52:26.290Z,60.50
2019-05-03T04:54:56.325Z,60.20
2019-05-03T04:57:00.842Z,60.20
2019-05-03T04:59:06.257Z,60.10
2019-05-03T05:01:11.787Z,60.20
2019-05-03T05:03:16.996Z,60.20
2019-05-03T05:05:22.317Z,60.10
2019-05-03T05:07:29.324Z,60.20
2019-05-03T05:09:35.686Z,60.50
2019-05-03T05:11:40.786Z,60.10
2019-05-03T05:13:46.360Z,60.10
2019-05-03T05:15:52.117Z,60.20
2019-05-03T05:18:05.661Z,59.70
2019-05-03T05:20:34.964Z,59.60
2019-05-03T05:22:40.489Z,59.40
2019-05-03T05:24:45.858Z,59.40
2019-05-03T05:27:01.199Z,59.40
2019-05-03T05:29:09.275Z,59.40
2019-05-03T05:31:15.232Z,59.30
2019-05-03T05:33:25.238Z,59.30
2019-05-03T05:35:30.611Z,59.20
2019-05-03T05:37:35.831Z,59.40
2019-05-03T05:39:40.939Z,59.50
2019-05-03T05:41:46.931Z,60.50
2019-05-03T05:43:52.103Z,59.90
2019-05-03T05:45:58.950Z,59.90
2019-05-03T05:48:08.212Z,60.00
2019-05-03T05:50:19.942Z,60.10
2019-05-03T05:52:25.066Z,60.50
2019-05-03T05:54:30.539Z,60.10
2019-05-03T05:56:54.363Z,60.00
2019-05-03T05:59:06.756Z,60.00
2019-05-03T06:01:24.886Z,60.10
2019-05-03T06:03:29.511Z,60.30
2019-05-03T06:05:35.581Z,60.20
2019-05-03T06:07:48.427Z,60.30
2019-05-03T06:10:01.082Z,60.20
2019-05-03T06:12:28.729Z,60.40
2019-05-03T06:14:39.973Z,59.90
2019-05-03T06:16:55.391Z,60.60
2019-05-03T06:19:32.086Z,60.50
2019-05-03T06:21:47.950Z,60.50
2019-05-03T06:23:59.061Z,60.60
2019-05-03T06:26:08.198Z,61.80
2019-05-03T06:28:20.954Z,61.20
2019-05-03T06:30:35.501Z,61.50
2019-05-03T06:32:41.454Z,61.20
2019-05-03T06:34:46.934Z,61.60
2019-05-03T06:36:55.283Z,60.40
2019-05-03T06:39:00.304Z,60.20
2019-05-03T06:41:05.592Z,60.60
2019-05-03T06:43:12.857Z,60.60
2019-05-03T06:45:17.993Z,60.40
2019-05-03T06:47:25.154Z,60.40
2019-05-03T06:49:34.581Z,60.50
2019-05-03T06:51:40.068Z,60.50
2019-05-03T06:53:50.283Z,60.50
2019-05-03T06:55:55.378Z,60.50
2019-05-03T06:58:00.420Z,60.60
2019-05-03T07:00:24.766Z,60.50
2019-05-03T07:02:46.030Z,59.90
2019-05-03T07:04:52.462Z,59.70
2019-05-03T07:07:05.571Z,60.00
2019-05-03T07:09:22.426Z,60.10
2019-05-03T07:11:27.510Z,59.70
2019-05-03T07:13:34.587Z,59.70
2019-05-03T07:15:40.131Z,59.20
2019-05-03T07:17:45.910Z,58.40
2019-05-03T07:19:51.287Z,58.50
2019-05-03T07:21:56.777Z,58.40
2019-05-03T07:24:01.890Z,58.30
2019-05-03T07:26:07.085Z,59.00
2019-05-03T07:28:12.025Z,58.00
2019-05-03T07:30:17.539Z,57.60
2019-05-03T07:32:24.667Z,57.60
2019-05-03T07:34:29.891Z,57.90
2019-05-03T07:36:35.779Z,57.80
2019-05-03T07:38:40.877Z,58.10
2019-05-03T07:40:46.072Z,57.40
2019-05-03T07:42:51.683Z,57.60
2019-05-03T07:44:56.793Z,57.50
2019-05-03T07:47:01.844Z,57.20
2019-05-03T07:49:06.998Z,56.60
2019-05-03T07:51:12.044Z,56.20
2019-05-03T07:53:17.136Z,56.50
2019-05-03T07:55:45.657Z,56.50
2019-05-03T07:57:55.455Z,56.30
2019-05-03T08:00:01.178Z,55.40
2019-05-03T08:02:06.525Z,54.90
2019-05-03T08:04:11.959Z,55.10
2019-05-03T08:06:17.424Z,55.10
2019-05-03T08:08:24.905Z,54.90
2019-05-03T08:10:29.794Z,55.10
2019-05-03T08:12:34.984Z,54.90
2019-05-03T08:14:41.817Z,55.10
2019-05-03T08:16:47.285Z,55.20
2019-05-03T08:18:52.343Z,55.50
2019-05-03T08:20:57.785Z,55.90
2019-05-03T08:23:05.086Z,55.50
2019-05-03T08:25:09.809Z,55.50
2019-05-03T08:27:15.237Z,55.50
2019-05-03T08:29:20.665Z,55.60
2019-05-03T08:31:38.099Z,55.50
2019-05-03T08:33:58.188Z,55.20
2019-05-03T08:36:04.842Z,55.10
2019-05-03T08:38:10.043Z,54.20
2019-05-03T08:40:16.026Z,53.90
2019-05-03T08:42:26.335Z,53.70
2019-05-03T08:44:31.694Z,53.40
2019-05-03T08:46:36.829Z,53.30
2019-05-03T08:48:42.656Z,52.70
2019-05-03T08:50:48.106Z,52.60
2019-05-03T08:52:55.540Z,52.20
2019-05-03T08:55:00.038Z,52.20
2019-05-03T08:57:06.291Z,52.20
2019-05-03T08:59:11.574Z,52.20
2019-05-03T09:01:17.045Z,52.20
2019-05-03T09:03:22.308Z,52.10
2019-05-03T09:05:27.761Z,51.40
2019-05-03T09:07:35.428Z,51.20
2019-05-03T09:09:55.016Z,51.20
2019-05-03T09:12:00.321Z,51.20
2019-05-03T09:14:08.008Z,51.20
2019-05-03T09:16:14.767Z,50.90
2019-05-03T09:18:20.590Z,51.10
2019-05-03T09:20:26.061Z,50.90
2019-05-03T09:22:31.277Z,50.70
2019-05-03T09:24:36.669Z,50.20
2019-05-03T09:26:42.114Z,50.10
2019-05-03T09:28:47.488Z,49.60
2019-05-03T09:30:55.042Z,49.20
2019-05-03T09:33:00.333Z,48.90
2019-05-03T09:35:05.687Z,48.80
2019-05-03T09:37:10.878Z,48.40
2019-05-03T09:39:16.059Z,48.60
2019-05-03T09:41:21.263Z,49.20
2019-05-03T09:43:26.729Z,49.50
2019-05-03T09:45:31.906Z,48.70
2019-05-03T09:47:37.019Z,48.20
2019-05-03T09:49:41.969Z,47.80
2019-05-03T09:51:47.170Z,48.00
2019-05-03T09:53:57.519Z,47.80
2019-05-03T09:56:05.056Z,47.70
2019-05-03T09:58:09.840Z,48.30
2019-05-03T10:00:17.435Z,47.90
2019-05-03T10:02:24.681Z,48.00
2019-05-03T10:04:30.267Z,47.90
2019-05-03T10:06:35.988Z,47.70
2019-05-03T10:08:41.181Z,47.00
2019-05-03T10:11:05.610Z,46.20
2019-05-03T10:13:14.302Z,46.30
2019-05-03T10:15:41.557Z,45.90
2019-05-03T10:17:55.507Z,45.60
2019-05-03T10:20:01.199Z,45.00
2019-05-03T10:22:06.600Z,44.60
2019-05-03T10:24:11.722Z,44.20
2019-05-03T10:26:16.857Z,44.00
2019-05-03T10:28:22.588Z,43.70
2019-05-03T10:30:28.706Z,43.40
2019-05-03T10:32:39.716Z,43.50
2019-05-03T10:34:55.679Z,44.10
2019-05-03T10:37:00.904Z,43.50
2019-05-03T10:39:07.119Z,43.50
2019-05-03T10:41:12.857Z,43.50
2019-05-03T10:43:18.022Z,43.50
2019-05-03T10:45:27.391Z,43.30
2019-05-03T10:47:30.288Z,43.60
2019-05-03T10:49:35.409Z,42.90
2019-05-03T10:51:45.380Z,43.10
2019-05-03T10:53:56.312Z,42.50
2019-05-03T10:56:23.057Z,42.30
2019-05-03T10:58:26.849Z,42.40
2019-05-03T11:00:45.102Z,42.70
2019-05-03T11:02:45.357Z,43.50
2019-05-03T11:04:50.891Z,42.90
2019-05-03T11:06:56.065Z,43.00
2019-05-03T11:09:05.487Z,43.30
2019-05-03T11:11:10.650Z,43.30
2019-05-03T11:13:15.823Z,43.60
2019-05-03T11:15:21.886Z,43.70
2019-05-03T11:17:27.432Z,43.80
2019-05-03T11:19:34.608Z,43.30
2019-05-03T11:21:39.525Z,42.40
2019-05-03T11:23:45.026Z,42.10
2019-05-03T11:25:50.163Z,42.10
2019-05-03T11:27:56.889Z,42.50
2019-05-03T11:30:02.164Z,41.90
2019-05-03T11:32:32.681Z,41.40
2019-05-03T11:34:44.903Z,42.30
2019-05-03T11:37:06.712Z,41.80
2019-05-03T11:39:12.189Z,41.80
2019-05-03T11:41:29.573Z,41.30
2019-05-03T11:43:24.841Z,41.20
2019-05-03T11:45:30.715Z,40.80
2019-05-03T11:47:36.129Z,40.80
2019-05-03T11:49:41.311Z,40.80
2019-05-03T11:51:47.066Z,41.00
2019-05-03T11:53:52.749Z,41.10
2019-05-03T11:55:57.877Z,40.70
2019-05-03T11:58:06.065Z,40.50
2019-05-03T12:00:14.759Z,40.30
2019-05-03T12:02:37.506Z,40.50
2019-05-03T12:04:45.231Z,40.40
2019-05-03T12:06:50.495Z,40.40
2019-05-03T12:08:55.584Z,40.60
2019-05-03T12:11:01.728Z,40.20
2019-05-03T12:13:16.839Z,39.90
2019-05-03T12:15:21.950Z,39.70
2019-05-03T12:17:29.993Z,39.30
2019-05-03T12:19:37.609Z,39.30
2019-05-03T12:21:42.816Z,39.40
2019-05-03T12:23:49.479Z,39.20
2019-05-03T12:25:55.765Z,38.80
2019-05-03T12:28:01.694Z,38.70
2019-05-03T12:30:07.720Z,39.10
2019-05-03T12:32:14.407Z,39.30
2019-05-03T12:34:19.843Z,39.20
2019-05-03T12:36:24.964Z,39.20
2019-05-03T12:38:30.249Z,38.60
2019-05-03T12:40:35.696Z,38.60
2019-05-03T12:42:41.013Z,39.10
2019-05-03T12:44:46.503Z,38.90
2019-05-03T12:46:51.986Z,38.90
2019-05-03T12:48:57.407Z,38.70
2019-05-03T12:51:05.814Z,37.70
2019-05-03T12:53:10.415Z,37.50
2019-05-03T12:55:15.627Z,37.70
2019-05-03T12:57:20.757Z,37.30
2019-05-03T12:59:55.597Z,37.10
2019-05-03T13:02:10.298Z,36.80
2019-05-03T13:04:19.135Z,36.40
2019-05-03T13:06:25.475Z,35.80
2019-05-03T13:08:41.410Z,35.80
2019-05-03T13:10:46.582Z,36.00
2019-05-03T13:12:53.338Z,35.60
2019-05-03T13:14:59.525Z,35.80
2019-05-03T13:17:04.879Z,35.50
2019-05-03T13:19:09.835Z,35.30
2019-05-03T13:21:14.975Z,35.30
2019-05-03T13:23:20.084Z,35.30
2019-05-03T13:25:25.891Z,35.80
2019-05-03T13:27:31.315Z,35.50
2019-05-03T13:29:36.309Z,34.90
2019-05-03T13:31:54.480Z,34.80
2019-05-03T13:33:49.248Z,34.80
2019-05-03T13:35:55.229Z,34.70
2019-05-03T13:38:00.527Z,34.70
2019-05-03T13:40:06.247Z,34.50
2019-05-03T13:42:11.334Z,34.20
2019-05-03T13:44:17.204Z,34.30
2019-05-03T13:46:24.474Z,34.70
2019-05-03T13:48:41.506Z,34.80
2019-05-03T13:50:36.292Z,34.50
2019-05-03T13:52:42.289Z,34.80
2019-05-03T13:54:51.705Z,34.70
2019-05-03T13:56:57.108Z,34.70
2019-05-03T13:59:04.675Z,34.90
2019-05-03T14:01:10.905Z,35.00
2019-05-03T14:03:17.096Z,34.90
2019-05-03T14:05:24.455Z,35.30
2019-05-03T14:07:29.805Z,35.10
2019-05-03T14:09:35.026Z,34.90
2019-05-03T14:11:40.188Z,34.50
2019-05-03T14:13:45.311Z,34.50
2019-05-03T14:15:50.482Z,34.40
2019-05-03T14:17:55.642Z,33.90
2019-05-03T14:20:15.754Z,34.00
2019-05-03T14:22:24.844Z,34.50
2019-05-03T14:24:30.522Z,34.50
2019-05-03T14:26:35.782Z,34.50
2019-05-03T14:28:40.847Z,34.20
2019-05-03T14:30:46.262Z,34.30
2019-05-03T14:32:51.454Z,34.50
2019-05-03T14:34:56.899Z,34.40
2019-05-03T14:37:02.257Z,34.90
2019-05-03T14:39:10.374Z,34.60
2019-05-03T14:41:15.642Z,34.30
2019-05-03T14:43:20.991Z,34.10
2019-05-03T14:45:26.172Z,34.50
2019-05-03T14:47:31.619Z,35.10
2019-05-03T14:49:36.806Z,34.60
2019-05-03T14:51:42.124Z,34.80
2019-05-03T14:53:47.608Z,34.80
2019-05-03T14:56:07.876Z,34.60
2019-05-03T14:58:29.960Z,34.60
2019-05-03T15:00:48.317Z,34.80
2019-05-03T15:02:59.341Z,34.40
2019-05-03T15:05:05.482Z,34.60
2019-05-03T15:07:10.705Z,34.50
2019-05-03T15:09:18.619Z,34.60
2019-05-03T15:11:22.839Z,34.60
2019-05-03T15:13:28.195Z,34.60
2019-05-03T15:15:34.709Z,34.60
2019-05-03T15:17:39.952Z,34.90
2019-05-03T15:19:45.458Z,35.00
2019-05-03T15:21:50.615Z,35.10
2019-05-03T15:23:55.645Z,34.60
2019-05-03T15:26:00.972Z,34.60
2019-05-03T15:28:06.165Z,34.60
2019-05-03T15:30:12.700Z,34.30
2019-05-03T15:32:18.220Z,34.40
2019-05-03T15:34:23.669Z,34.40
2019-05-03T15:36:29.212Z,34.60
2019-05-03T15:38:34.826Z,34.60
2019-05-03T15:40:39.846Z,34.60
2019-05-03T15:42:50.682Z,34.90
2019-05-03T15:45:14.688Z,35.20
2019-05-03T15:47:25.353Z,35.00
2019-05-03T15:49:30.815Z,35.10
2019-05-03T15:51:35.925Z,34.80
2019-05-03T15:53:40.878Z,34.60
2019-05-03T15:55:46.378Z,34.70
2019-05-03T15:57:52.048Z,34.60
2019-05-03T15:59:58.198Z,34.50
2019-05-03T16:02:04.592Z,34.60
2019-05-03T16:04:09.678Z,34.90
2019-05-03T16:06:15.554Z,35.10
2019-05-03T16:08:21.080Z,35.10
2019-05-03T16:10:26.159Z,35.10
2019-05-03T16:12:31.210Z,35.30
2019-05-03T16:14:37.510Z,35.50
2019-05-03T16:16:42.719Z,35.70
2019-05-03T16:18:48.025Z,35.70
2019-05-03T16:20:54.658Z,35.60
2019-05-03T16:23:00.238Z,35.70
2019-05-03T16:25:06.020Z,35.70
2019-05-03T16:27:25.592Z,36.40
2019-05-03T16:29:31.056Z,36.50
2019-05-03T16:31:36.508Z,36.30
2019-05-03T16:33:41.623Z,36.60
2019-05-03T16:35:46.787Z,36.70
2019-05-03T16:37:51.992Z,36.70
2019-05-03T16:39:57.910Z,36.70
2019-05-03T16:42:04.275Z,36.60
2019-05-03T16:44:10.074Z,36.40
2019-05-03T16:46:15.298Z,36.50
2019-05-03T16:48:20.706Z,36.60
2019-05-03T16:50:26.154Z,36.60
2019-05-03T16:52:31.186Z,36.70
2019-05-03T16:54:36.373Z,36.80
2019-05-03T16:56:42.035Z,36.70
2019-05-03T16:58:47.481Z,37.10
2019-05-03T17:00:52.951Z,37.20
2019-05-03T17:02:58.341Z,37.00
2019-05-03T17:05:15.525Z,37.00
2019-05-03T17:07:29.441Z,37.40
2019-05-03T17:09:50.756Z,37.60
2019-05-03T17:12:19.597Z,37.70
2019-05-03T17:14:25.021Z,37.40
2019-05-03T17:16:30.454Z,37.70
2019-05-03T17:18:35.672Z,37.60
2019-05-03T17:20:41.133Z,37.90
2019-05-03T17:22:46.381Z,37.80
2019-05-03T17:24:51.742Z,37.70
2019-05-03T17:26:57.500Z,37.90
2019-05-03T17:29:04.633Z,38.20
2019-05-03T17:31:09.991Z,38.40
2019-05-03T17:33:16.135Z,38.20
2019-05-03T17:35:21.422Z,38.20
2019-05-03T17:37:26.438Z,38.10
2019-05-03T17:39:49.576Z,38.20
2019-05-03T17:42:05.210Z,38.20
2019-05-03T17:44:15.508Z,38.30
2019-05-03T17:46:21.144Z,38.70
2019-05-03T17:48:26.621Z,38.60
2019-05-03T17:50:32.085Z,38.30
2019-05-03T17:52:45.731Z,38.30
2019-05-03T17:55:09.750Z,38.20
2019-05-03T17:57:21.293Z,38.40
2019-05-03T17:59:35.141Z,38.80
2019-05-03T18:01:59.342Z,39.10
2019-05-03T18:04:11.959Z,39.40
2019-05-03T18:06:29.601Z,39.30
2019-05-03T18:08:47.976Z,39.30
2019-05-03T18:11:06.759Z,39.50
2019-05-03T18:13:14.279Z,39.70
2019-05-03T18:15:19.603Z,39.90
2019-05-03T18:17:24.876Z,39.90
2019-05-03T18:19:30.102Z,40.00
2019-05-03T18:21:35.562Z,40.10
2019-05-03T18:23:45.419Z,40.50
2019-05-03T18:25:50.893Z,40.80
2019-05-03T18:27:56.387Z,40.80
2019-05-03T18:30:02.032Z,40.80
2019-05-03T18:32:07.169Z,41.10
2019-05-03T18:34:19.094Z,41.60
2019-05-03T18:36:19.963Z,41.90
2019-05-03T18:38:25.830Z,42.00
2019-05-03T18:40:32.281Z,42.10
2019-05-03T18:42:44.783Z,42.90
2019-05-03T18:44:55.119Z,43.30
2019-05-03T18:47:05.431Z,43.30
2019-05-03T18:49:11.115Z,43.70
2019-05-03T18:51:16.683Z,43.50
2019-05-03T18:53:21.648Z,43.60
2019-05-03T18:55:26.769Z,44.10
2019-05-03T18:57:31.807Z,44.60
2019-05-03T18:59:36.984Z,44.60
2019-05-03T19:01:42.445Z,44.80
2019-05-03T19:03:49.934Z,45.00
2019-05-03T19:05:58.249Z,45.10
2019-05-03T19:08:11.936Z,45.20
2019-05-03T19:10:28.685Z,45.20
2019-05-03T19:12:38.864Z,45.30
2019-05-03T19:14:44.428Z,45.40
2019-05-03T19:16:59.672Z,45.80
2019-05-03T19:19:04.915Z,45.90
2019-05-03T19:21:10.448Z,46.70
2019-05-03T19:23:15.774Z,46.10
2019-05-03T19:25:21.240Z,46.10
2019-05-03T19:27:26.370Z,46.00
2019-05-03T19:29:31.907Z,46.10
2019-05-03T19:31:37.443Z,46.10
2019-05-03T19:33:42.844Z,46.10
2019-05-03T19:35:47.999Z,46.10
2019-05-03T19:37:55.316Z,46.40
2019-05-03T19:40:00.088Z,46.60
2019-05-03T19:42:05.279Z,46.30
2019-05-03T19:44:10.533Z,46.30
2019-05-03T19:46:16.647Z,46.40
2019-05-03T19:48:22.170Z,46.30
2019-05-03T19:50:27.536Z,46.20
2019-05-03T19:52:36.988Z,46.20
2019-05-03T19:54:42.542Z,46.30
2019-05-03T19:56:47.903Z,46.20
2019-05-03T19:58:57.207Z,46.50
2019-05-03T20:01:21.253Z,46.50
2019-05-03T20:03:36.323Z,47.20
2019-05-03T20:06:02.543Z,47.30
2019-05-03T20:08:15.783Z,47.20
2019-05-03T20:10:21.196Z,47.20
2019-05-03T20:12:26.691Z,47.20
2019-05-03T20:14:31.710Z,47.20
2019-05-03T20:16:37.424Z,47.30
2019-05-03T20:18:45.332Z,47.50
2019-05-03T20:20:50.192Z,47.60
2019-05-03T20:22:55.563Z,47.70
2019-05-03T20:25:00.689Z,47.80
2019-05-03T20:27:05.849Z,47.80
2019-05-03T20:29:10.928Z,47.80
2019-05-03T20:31:16.119Z,48.00
2019-05-03T20:33:21.535Z,48.10
2019-05-03T20:35:26.746Z,48.30
2019-05-03T20:37:34.285Z,48.60
2019-05-03T20:39:39.938Z,48.80
2019-05-03T20:41:45.709Z,48.90
2019-05-03T20:44:00.888Z,48.90
2019-05-03T20:46:25.682Z,48.90
2019-05-03T20:48:31.367Z,48.90
2019-05-03T20:50:36.816Z,48.90
2019-05-03T20:52:42.110Z,49.20
2019-05-03T20:54:47.689Z,49.20
2019-05-03T20:56:54.663Z,49.40
2019-05-03T20:58:59.823Z,49.60
2019-05-03T21:01:05.355Z,50.00
2019-05-03T21:03:10.547Z,50.30
2019-05-03T21:05:26.749Z,50.20
2019-05-03T21:07:24.104Z,50.40
2019-05-03T21:09:30.229Z,50.50
2019-05-03T21:11:35.638Z,50.70
2019-05-03T21:13:42.529Z,50.90
2019-05-03T21:15:59.332Z,51.00
2019-05-03T21:18:34.386Z,51.20
2019-05-03T21:21:01.687Z,51.20
2019-05-03T21:23:08.144Z,51.30
2019-05-03T21:26:02.620Z,51.30
2019-05-03T21:27:48.713Z,51.80
2019-05-03T21:29:55.107Z,51.80
2019-05-03T21:32:00.753Z,52.10
2019-05-03T21:34:05.877Z,52.20
2019-05-03T21:36:11.276Z,52.40
2019-05-03T21:38:16.474Z,52.50
2019-05-03T21:40:24.312Z,52.60
2019-05-03T21:42:29.397Z,52.80
2019-05-03T21:44:35.779Z,52.90
2019-05-03T21:46:45.736Z,53.60
2019-05-03T21:48:56.165Z,53.00
2019-05-03T21:51:01.522Z,53.10
2019-05-03T21:53:06.667Z,53.30
2019-05-03T21:55:12.169Z,53.30
2019-05-03T21:57:17.351Z,53.50
2019-05-03T21:59:22.465Z,53.40
2019-05-03T22:01:28.142Z,53.50
2019-05-03T22:03:35.343Z,53.50
2019-05-03T22:05:52.710Z,53.50
2019-05-03T22:07:47.848Z,53.70
2019-05-03T22:09:54.472Z,53.80
2019-05-03T22:11:59.952Z,54.30
2019-05-03T22:14:08.617Z,54.10
2019-05-03T22:16:18.565Z,54.10
2019-05-03T22:18:28.524Z,54.20
2019-05-03T22:20:39.465Z,54.10
2019-05-03T22:22:51.892Z,54.10
2019-05-03T22:24:59.542Z,54.00
2019-05-03T22:27:12.512Z,54.00
2019-05-03T22:29:17.598Z,54.30
2019-05-03T22:31:24.207Z,54.50
2019-05-03T22:33:30.128Z,54.70
2019-05-03T22:35:35.684Z,55.00
2019-05-03T22:37:40.982Z,55.00
2019-05-03T22:39:47.692Z,55.10
2019-05-03T22:41:53.369Z,55.00
2019-05-03T22:43:58.508Z,54.90
2019-05-03T22:46:05.303Z,55.10
2019-05-03T22:48:10.559Z,55.20
2019-05-03T22:50:16.106Z,55.20
2019-05-03T22:52:21.466Z,55.10
2019-05-03T22:54:26.479Z,55.30
2019-05-03T22:56:31.979Z,55.40
2019-05-03T22:58:37.476Z,55.50
2019-05-03T23:00:44.515Z,55.70
2019-05-03T23:02:49.606Z,55.80
2019-05-03T23:04:55.391Z,55.80
2019-05-03T23:07:00.970Z,55.80
2019-05-03T23:09:07.154Z,55.50
2019-05-03T23:11:12.585Z,55.40
2019-05-03T23:13:17.943Z,55.40
2019-05-03T23:15:24.419Z,55.50
2019-05-03T23:17:29.954Z,55.50
2019-05-03T23:19:36.895Z,55.50
2019-05-03T23:21:54.548Z,55.60
2019-05-03T23:24:00.150Z,55.80
2019-05-03T23:26:05.263Z,55.90
2019-05-03T23:28:10.337Z,55.70
2019-05-03T23:30:15.729Z,55.30
2019-05-03T23:32:20.836Z,55.30
2019-05-03T23:34:26.314Z,55.30
2019-05-03T23:36:33.492Z,54.70
2019-05-03T23:38:38.994Z,54.60
2019-05-03T23:40:44.788Z,54.90
2019-05-03T23:42:50.133Z,55.60
2019-05-03T23:44:55.489Z,55.10
2019-05-03T23:47:22.598Z,55.00
2019-05-03T23:49:28.189Z,55.30
2019-05-03T23:51:50.136Z,55.40
2019-05-03T23:53:55.080Z,55.30
2019-05-03T23:56:10.369Z,55.40
2019-05-03T23:58:15.468Z,55.30
